Time;durP1;ratioP1;P1;durP2;ratioP2;P2;SDS_P1;SDS_P2;PMS_P1;PMS_P2;Temp;Humidity;BMP_temperature;BMP_pressure;BME280_temperature;BME280_humidity;BME280_pressure;Samples;Min_cycle;Max_cycle;Signal;HPM_P1;HPM_P2
2023/05/27 00:02:22;;;;;;;17.33;6.20;;;;;;;8.85;100.00;102961.34;5011614;28;20038;-42
2023/05/27 00:04:48;;;;;;;18.80;6.00;;;;;;;8.53;100.00;102905.03;5012779;28;20092;-42
2023/05/27 00:07:13;;;;;;;15.60;5.22;;;;;;;8.64;100.00;102916.53;5011518;28;20037;-42
2023/05/27 00:09:38;;;;;;;16.50;6.10;;;;;;;8.89;100.00;102960.50;5011803;28;20110;-45
2023/05/27 00:12:04;;;;;;;15.85;5.63;;;;;;;8.78;100.00;102931.56;5012635;28;20029;-45
2023/05/27 00:14:29;;;;;;;17.88;5.75;;;;;;;8.48;100.00;102869.16;4993345;28;20033;-43
2023/05/27 00:16:55;;;;;;;17.88;5.68;;;;;;;8.90;100.00;102949.16;5012938;28;20034;-44
2023/05/27 00:19:20;;;;;;;18.85;5.10;;;;;;;8.94;100.00;102954.44;5011915;28;20088;-43
2023/05/27 00:21:46;;;;;;;19.85;5.53;;;;;;;8.72;100.00;102922.72;5012594;28;20045;-45
2023/05/27 00:24:11;;;;;;;12.90;4.90;;;;;;;8.88;100.00;102942.97;5011320;28;20037;-43
2023/05/27 00:26:38;;;;;;;19.45;5.95;;;;;;;8.84;100.00;102949.09;5012681;28;20088;-44
2023/05/27 00:29:03;;;;;;;11.98;4.75;;;;;;;8.83;100.00;102948.22;5012316;28;20511;-44
2023/05/27 00:31:29;;;;;;;17.65;5.93;;;;;;;8.40;100.00;102880.47;5011173;28;20033;-46
2023/05/27 00:33:54;;;;;;;16.52;6.05;;;;;;;8.77;100.00;102942.03;5012526;28;20334;-45
2023/05/27 00:36:19;;;;;;;18.00;5.63;;;;;;;8.73;100.00;102932.34;5012377;28;20077;-46
2023/05/27 00:38:45;;;;;;;19.05;5.07;;;;;;;8.75;100.00;102949.03;4995163;28;20034;-45
2023/05/27 00:41:12;;;;;;;15.65;5.30;;;;;;;8.69;100.00;102927.97;5012186;28;20022;-47
2023/05/27 00:43:38;;;;;;;13.90;5.68;;;;;;;8.75;100.00;102957.78;5012421;28;20041;-43
2023/05/27 00:46:03;;;;;;;17.75;5.38;;;;;;;8.37;100.00;102889.19;5012517;28;20073;-44
2023/05/27 00:48:29;;;;;;;14.98;4.95;;;;;;;8.63;100.00;102936.66;4993204;28;20390;-44
2023/05/27 00:50:54;;;;;;;14.50;4.72;;;;;;;8.36;100.00;102889.16;5010820;28;20034;-43
2023/05/27 00:53:20;;;;;;;15.25;5.07;;;;;;;8.70;100.00;102948.09;5010939;28;20081;-44
2023/05/27 00:55:46;;;;;;;14.05;5.00;;;;;;;8.57;100.00;102933.09;4994909;28;20034;-43
2023/05/27 00:58:11;;;;;;;15.60;5.18;;;;;;;8.29;100.00;102885.59;5011902;28;20034;-45
2023/05/27 01:00:38;;;;;;;17.33;5.45;;;;;;;8.18;100.00;102874.09;5011675;28;20036;-46
2023/05/27 01:03:06;;;;;;;17.30;6.03;;;;;;;8.55;100.00;102940.09;5010053;28;20042;-44
2023/05/27 01:05:31;;;;;;;14.80;4.18;;;;;;;8.30;100.00;102904.84;5011563;28;20038;-45
2023/05/27 01:08:04;;;;;;;17.77;5.45;;;;;;;8.37;100.00;102928.56;5011782;28;20492;-43
2023/05/27 01:10:40;;;;;;;15.15;5.35;;;;;;;8.06;100.00;102870.44;5010609;28;20026;-43
2023/05/27 01:13:34;;;;;;;15.27;5.22;;;;;;;8.42;100.00;102932.09;5012118;28;20076;-45
2023/05/27 01:16:02;;;;;;;16.48;4.75;;;;;;;8.41;100.00;102938.19;5011963;28;20084;-44
2023/05/27 01:18:31;;;;;;;12.82;4.20;;;;;;;8.12;100.00;102886.25;5012132;28;20042;-44
2023/05/27 01:21:05;;;;;;;17.05;4.65;;;;;;;7.94;100.00;102847.59;5009054;28;20034;-42
2023/05/27 01:23:31;;;;;;;15.82;4.47;;;;;;;8.23;100.00;102909.09;5010836;28;20482;-41
2023/05/27 01:25:56;;;;;;;17.25;5.80;;;;;;;8.26;100.00;102927.50;5014561;28;20048;-44
2023/05/27 01:28:22;;;;;;;12.15;4.68;;;;;;;6.98;100.00;102705.91;5015790;28;20034;-45
2023/05/27 01:30:47;;;;;;;13.05;4.18;;;;;;;8.24;100.00;102924.00;4998276;28;20088;-49
2023/05/27 01:33:17;;;;;;;14.68;4.53;;;;;;;7.90;100.00;102864.19;4997902;28;20048;-46
2023/05/27 01:35:46;;;;;;;16.87;5.00;;;;;;;8.12;100.00;102907.25;5014211;28;20061;-45
2023/05/27 01:38:17;;;;;;;13.35;5.00;;;;;;;8.19;100.00;102933.56;4996605;28;20122;-43
2023/05/27 01:40:44;;;;;;;12.10;4.65;;;;;;;8.19;100.00;102928.31;5014678;28;20116;-45
2023/05/27 01:43:10;;;;;;;18.90;4.65;;;;;;;7.88;100.00;102876.41;4997771;28;20520;-43
2023/05/27 01:45:35;;;;;;;15.88;4.40;;;;;;;8.13;100.00;102927.38;5015502;28;20033;-46
2023/05/27 01:48:01;;;;;;;16.48;5.20;;;;;;;7.46;100.00;102806.03;5014336;28;20038;-42
2023/05/27 01:50:26;;;;;;;15.93;4.95;;;;;;;7.73;100.00;102861.41;5015376;28;20048;-47
2023/05/27 01:52:52;;;;;;;14.30;5.13;;;;;;;8.11;100.00;102923.88;5012625;28;20112;-45
2023/05/27 01:55:17;;;;;;;12.02;4.45;;;;;;;7.67;100.00;102857.81;5014853;28;20034;-45
2023/05/27 01:57:43;;;;;;;10.07;4.65;;;;;;;7.67;100.00;102857.81;5015191;28;20081;-42
2023/05/27 02:00:09;;;;;;;17.63;4.95;;;;;;;8.01;100.00;102928.13;5014949;28;20050;-43
2023/05/27 02:02:35;;;;;;;16.05;5.35;;;;;;;7.99;100.00;102927.22;5014065;28;20034;-43
2023/05/27 02:05:00;;;;;;;14.50;5.00;;;;;;;7.97;100.00;102915.81;5015067;28;20402;-43
2023/05/27 02:07:26;;;;;;;13.45;4.97;;;;;;;7.58;100.00;102855.97;5015168;28;20124;-43
2023/05/27 02:09:52;;;;;;;14.45;4.50;;;;;;;7.93;100.00;102920.19;5015178;28;20041;-49
2023/05/27 02:12:17;;;;;;;14.40;4.95;;;;;;;7.88;100.00;102918.38;5013484;28;20396;-44
2023/05/27 02:14:44;;;;;;;15.63;5.25;;;;;;;7.45;100.00;102858.41;5014879;28;20099;-43
2023/05/27 02:17:10;;;;;;;16.67;5.25;;;;;;;7.85;100.00;102923.56;5014870;28;20056;-44
2023/05/27 02:19:35;;;;;;;12.80;4.50;;;;;;;7.80;100.00;102926.13;5013367;28;20525;-44
2023/05/27 02:22:01;;;;;;;20.10;5.72;;;;;;;7.77;100.00;102923.47;5013694;28;20026;-45
2023/05/27 02:24:26;;;;;;;18.33;4.30;;;;;;;7.74;100.00;102927.78;4997356;28;20400;-42
2023/05/27 02:26:51;;;;;;;12.82;4.65;;;;;;;7.55;100.00;102907.47;5012646;28;20045;-45
2023/05/27 02:29:17;;;;;;;13.60;5.95;;;;;;;7.67;100.00;102928.59;5013500;28;20037;-43
2023/05/27 02:31:42;;;;;;;21.02;5.63;;;;;;;7.61;100.00;102926.78;5014403;28;20049;-43
2023/05/27 02:34:07;;;;;;;17.88;5.47;;;;;;;7.49;100.00;102910.88;5014466;28;20038;-45
2023/05/27 02:36:33;;;;;;;15.20;5.53;;;;;;;7.40;100.00;102902.91;5012261;28;20132;-42
2023/05/27 02:38:59;;;;;;;15.52;5.53;;;;;;;7.42;100.00;102901.16;5014265;28;20149;-42
2023/05/27 02:41:25;;;;;;;19.60;5.30;;;;;;;7.15;100.00;102857.13;4996665;28;20126;-43
2023/05/27 02:43:51;;;;;;;20.38;5.50;;;;;;;7.15;100.00;102872.84;5012790;28;20474;-44
2023/05/27 02:46:16;;;;;;;15.27;4.88;;;;;;;7.03;100.00;102853.50;5014207;28;20044;-46
2023/05/27 02:48:41;;;;;;;13.85;5.18;;;;;;;6.99;100.00;102844.72;5014195;28;20462;-45
2023/05/27 02:51:07;;;;;;;14.00;5.53;;;;;;;7.34;100.00;102919.41;5013040;28;20087;-44
2023/05/27 02:53:32;;;;;;;12.88;4.97;;;;;;;7.33;100.00;102919.38;5013072;28;20286;-46
2023/05/27 02:55:57;;;;;;;20.33;5.25;;;;;;;7.30;100.00;102908.84;5014340;28;20042;-41
2023/05/27 02:58:23;;;;;;;16.63;5.82;;;;;;;7.27;100.00;102914.06;5014067;28;20060;-45
2023/05/27 03:00:48;;;;;;;20.90;5.53;;;;;;;7.15;100.00;102898.19;5014247;28;20458;-46
2023/05/27 03:03:13;;;;;;;20.98;5.43;;;;;;;6.83;100.00;102842.72;5010637;28;20048;-46
2023/05/27 03:05:39;;;;;;;16.73;6.10;;;;;;;7.11;100.00;102896.38;5013971;28;20481;-48
2023/05/27 03:08:05;;;;;;;17.27;5.75;;;;;;;7.16;100.00;102913.03;5004760;28;20124;-44
2023/05/27 03:10:34;;;;;;;17.63;5.72;;;;;;;6.82;100.00;102856.69;4996752;28;20440;-44
2023/05/27 03:13:00;;;;;;;15.82;5.63;;;;;;;6.84;100.00;102860.19;5012547;28;20173;-43
2023/05/27 03:15:29;;;;;;;18.95;5.80;;;;;;;6.15;100.00;102734.41;5013812;28;20508;-44
2023/05/27 03:17:55;;;;;;;18.60;5.75;;;;;;;7.12;100.00;102906.84;5013537;28;20026;-45
2023/05/27 03:20:20;;;;;;;14.07;5.20;;;;;;;6.76;100.00;102849.63;5012516;28;20026;-43
2023/05/27 03:22:46;;;;;;;16.33;6.18;;;;;;;6.91;100.00;102883.00;5013634;28;20409;-45
2023/05/27 03:25:11;;;;;;;20.25;6.07;;;;;;;7.09;100.00;102914.66;4994507;28;20160;-45
2023/05/27 03:27:37;;;;;;;17.63;5.78;;;;;;;6.71;100.00;102850.41;5012401;28;20040;-45
2023/05/27 03:30:05;;;;;;;12.50;5.28;;;;;;;6.72;100.00;102860.00;5013304;28;20034;-44
2023/05/27 03:32:30;;;;;;;15.98;5.28;;;;;;;7.02;100.00;102911.94;5013234;28;20128;-43
2023/05/27 03:34:55;;;;;;;16.63;5.72;;;;;;;6.96;100.00;102912.72;5013561;28;20179;-43
2023/05/27 03:37:20;;;;;;;12.63;6.32;;;;;;;6.96;100.00;102910.13;5012267;28;20049;-46
2023/05/27 03:39:46;;;;;;;14.38;5.15;;;;;;;6.93;100.00;102910.06;5013421;28;20096;-45
2023/05/27 03:42:11;;;;;;;20.73;5.63;;;;;;;6.87;100.00;102901.22;5011833;28;20037;-46
2023/05/27 03:44:36;;;;;;;18.80;6.07;;;;;;;6.93;100.00;102915.31;5013437;28;20038;-42
2023/05/27 03:47:02;;;;;;;16.67;6.28;;;;;;;6.47;100.00;102827.34;5013124;28;20034;-42
2023/05/27 03:49:27;;;;;;;16.45;5.85;;;;;;;6.92;100.00;102915.28;5013313;28;20034;-45
2023/05/27 03:51:53;;;;;;;17.30;5.70;;;;;;;6.92;100.00;102910.91;5013278;28;20065;-42
2023/05/27 03:54:18;;;;;;;16.83;5.82;;;;;;;6.62;100.00;102859.00;5013292;28;20523;-43
2023/05/27 03:56:43;;;;;;;15.65;4.60;;;;;;;6.90;100.00;102893.44;5013058;28;20074;-44
2023/05/27 03:59:09;;;;;;;18.02;6.68;;;;;;;6.87;100.00;102898.63;5012016;28;20461;-46
2023/05/27 04:01:34;;;;;;;21.25;6.30;;;;;;;6.48;100.00;102817.78;5013131;28;20378;-44
2023/05/27 04:03:59;;;;;;;20.90;5.68;;;;;;;6.82;100.00;102867.16;5012040;28;20037;-43
2023/05/27 04:06:25;;;;;;;16.65;6.22;;;;;;;6.88;100.00;102880.31;5012832;28;20096;-43
2023/05/27 04:08:51;;;;;;;19.15;6.75;;;;;;;6.49;100.00;102809.94;5013131;28;20041;-43
2023/05/27 04:11:16;;;;;;;20.48;6.63;;;;;;;6.92;100.00;102879.50;5011783;28;20481;-43
2023/05/27 04:13:41;;;;;;;20.15;5.88;;;;;;;6.58;100.00;102823.16;5012730;28;20489;-44
2023/05/27 04:16:07;;;;;;;14.68;5.88;;;;;;;6.74;100.00;102851.31;5011018;28;20072;-43
2023/05/27 04:18:33;;;;;;;15.48;5.40;;;;;;;6.59;100.00;102818.81;5012823;28;20042;-46
2023/05/27 04:20:59;;;;;;;19.17;6.13;;;;;;;7.00;100.00;102888.38;5012916;28;20057;-46
2023/05/27 04:23:25;;;;;;;17.58;5.72;;;;;;;6.95;100.00;102868.19;5012777;28;20393;-47
2023/05/27 04:25:52;;;;;;;16.70;6.35;;;;;;;6.65;100.00;102819.78;4995109;28;20116;-42
2023/05/27 04:28:17;;;;;;;18.27;7.30;;;;;;;6.98;100.00;102876.09;5012702;28;20038;-45
2023/05/27 04:30:43;;;;;;;13.80;5.78;;;;;;;7.05;100.00;102886.69;4994999;28;20144;-46
2023/05/27 04:33:09;;;;;;;16.48;6.10;;;;;;;6.86;100.00;102844.53;5011053;28;20034;-43
2023/05/27 04:35:34;;;;;;;22.50;6.65;;;;;;;6.82;100.00;102813.91;5012596;28;20037;-44
2023/05/27 04:38:01;;;;;;;18.08;7.07;;;;;;;6.96;100.00;102870.84;5012439;28;20033;-44
2023/05/27 04:40:26;;;;;;;14.73;6.50;;;;;;;6.93;100.00;102822.78;5011349;28;20042;-44
2023/05/27 04:42:52;;;;;;;15.88;5.90;;;;;;;7.20;100.00;102871.19;5012496;28;20145;-43
2023/05/27 04:45:18;;;;;;;20.23;6.53;;;;;;;6.97;100.00;102819.38;5012400;28;20038;-45
2023/05/27 04:47:44;;;;;;;24.00;6.97;;;;;;;7.06;100.00;102822.13;5012335;28;20034;-42
2023/05/27 04:50:13;;;;;;;16.65;6.40;;;;;;;7.52;100.00;102891.69;5010731;28;20074;-44
2023/05/27 04:52:38;;;;;;;22.95;6.28;;;;;;;7.58;100.00;102884.78;5012543;28;20061;-42
2023/05/27 04:55:09;;;;;;;13.63;5.82;;;;;;;7.64;100.00;102894.47;5012314;28;20390;-43
2023/05/27 04:57:35;;;;;;;18.73;6.55;;;;;;;7.38;100.00;102830.38;4994852;28;20026;-44
2023/05/27 05:02:34;;;;;;;15.95;5.60;;;;;;;7.91;100.00;102900.00;5016356;28;20049;-43
2023/05/27 05:05:04;;;;;;;20.30;5.72;;;;;;;7.59;100.00;102807.06;4998222;28;20401;-46
2023/05/27 05:07:30;;;;;;;15.45;5.63;;;;;;;7.78;100.00;102833.47;5016123;28;20045;-43
2023/05/27 05:09:56;;;;;;;14.80;5.68;;;;;;;8.06;100.00;102862.59;5016092;28;20441;-44
2023/05/27 05:12:21;;;;;;;19.08;6.18;;;;;;;7.88;100.00;102824.81;5016010;28;20053;-46
2023/05/27 05:14:47;;;;;;;17.23;5.72;;;;;;;8.29;100.00;102875.09;5015123;28;20121;-44
2023/05/27 05:17:12;;;;;;;14.02;4.85;;;;;;;8.04;100.00;102807.50;5016387;28;20490;-44
2023/05/27 05:19:38;;;;;;;21.98;5.95;;;;;;;8.10;100.00;102799.69;5015622;28;20037;-43
2023/05/27 05:22:04;;;;;;;17.60;6.07;;;;;;;8.58;100.00;102866.63;5015874;28;20451;-42
2023/05/27 05:24:29;;;;;;;18.65;5.40;;;;;;;8.30;100.00;102799.88;5014078;28;20034;-47
2023/05/27 05:26:54;;;;;;;17.00;5.18;;;;;;;8.81;100.00;102865.94;4998082;28;20401;-45
2023/05/27 05:29:20;;;;;;;16.17;5.88;;;;;;;7.98;100.00;102702.56;5014345;28;20034;-47
2023/05/27 05:31:45;;;;;;;22.90;6.22;;;;;;;9.01;100.00;102861.69;5015867;28;20124;-46
2023/05/27 05:34:11;;;;;;;19.92;5.93;;;;;;;8.72;100.00;102802.84;4998221;28;20123;-43
2023/05/27 05:36:36;;;;;;;14.00;5.05;;;;;;;8.89;100.00;102800.31;5015519;28;20046;-43
2023/05/27 05:39:03;;;;;;;16.00;5.65;;;;;;;9.41;100.00;102867.13;4996127;28;20077;-43
2023/05/27 05:41:28;;;;;;;15.57;6.28;;;;;;;9.25;100.00;102804.88;5015543;28;20037;-44
2023/05/27 05:43:54;;;;;;;17.42;6.18;;;;;;;9.30;100.00;102792.63;5015217;28;20042;-45
2023/05/27 05:46:19;;;;;;;19.00;6.38;;;;;;;9.76;100.00;102859.38;4997843;28;20030;-45
2023/05/27 05:48:45;;;;;;;15.93;5.18;;;;;;;9.89;100.00;102854.16;5014430;28;20041;-44
2023/05/27 05:51:10;;;;;;;18.45;5.57;;;;;;;9.76;100.00;102812.03;5014171;28;20037;-43
2023/05/27 05:53:35;;;;;;;15.27;5.78;;;;;;;10.03;100.00;102855.06;5013900;28;20030;-43
2023/05/27 05:56:01;;;;;;;14.20;5.57;;;;;;;9.77;100.00;102801.53;4995807;28;20147;-43
2023/05/27 05:58:26;;;;;;;15.60;5.60;;;;;;;10.21;100.00;102872.69;5014287;28;20072;-44
2023/05/27 06:00:51;;;;;;;14.93;5.30;;;;;;;10.30;100.00;102856.91;5015005;28;20042;-43
2023/05/27 06:03:17;;;;;;;17.88;5.90;;;;;;;10.40;100.00;102848.09;5014921;28;20030;-42
2023/05/27 06:05:42;;;;;;;18.08;5.35;;;;;;;10.59;100.00;102865.69;5015176;28;20037;-44
2023/05/27 06:08:07;;;;;;;14.65;5.25;;;;;;;10.69;100.00;102846.34;5013983;28;20030;-43
2023/05/27 06:10:33;;;;;;;14.65;5.63;;;;;;;10.44;100.00;102801.59;5013811;28;20050;-44
2023/05/27 06:12:58;;;;;;;12.50;4.78;;;;;;;10.84;100.00;102853.34;5012873;28;20045;-45
2023/05/27 06:15:23;;;;;;;17.27;5.43;;;;;;;10.88;100.00;102859.50;5013917;28;20503;-44
2023/05/27 06:17:49;;;;;;;13.90;5.38;;;;;;;10.64;100.00;102790.19;5014936;28;20041;-44
2023/05/27 06:20:14;;;;;;;12.00;4.90;;;;;;;11.16;100.00;102848.00;5014748;28;20042;-44
2023/05/27 06:22:39;;;;;;;16.63;4.57;;;;;;;11.30;100.00;102847.06;5014763;28;20092;-43
2023/05/27 06:25:06;;;;;;;16.83;5.45;;;;;;;11.32;100.00;102842.66;5014904;28;20033;-43
2023/05/27 06:27:31;;;;;;;12.73;5.05;;;;;;;11.19;100.00;102782.97;5012796;28;20034;-43
2023/05/27 06:29:56;;;;;;;15.90;5.82;;;;;;;11.50;100.00;102838.22;5014740;28;20063;-50
2023/05/27 06:32:22;;;;;;;17.67;5.90;;;;;;;11.52;100.00;102821.50;5014529;28;20084;-45
2023/05/27 06:34:47;;;;;;;14.95;5.40;;;;;;;11.73;100.00;102826.69;4997101;28;20064;-46
2023/05/27 06:37:13;;;;;;;15.40;5.25;;;;;;;11.49;100.00;102762.63;5014335;28;20041;-45
2023/05/27 06:39:38;;;;;;;17.40;5.60;;;;;;;11.69;100.00;102760.72;5014265;28;20172;-46
2023/05/27 06:42:04;;;;;;;14.18;4.53;;;;;;;12.12;100.00;102820.28;5014380;28;20128;-45
2023/05/27 06:44:29;;;;;;;19.65;5.15;;;;;;;11.92;100.00;102761.47;5012816;28;20042;-42
2023/05/27 06:46:54;;;;;;;10.45;4.10;;;;;;;12.33;100.00;102830.69;5014533;28;20041;-45
2023/05/27 06:49:20;;;;;;;12.98;5.07;;;;;;;12.24;100.00;102816.66;5013993;28;20048;-43
2023/05/27 06:51:45;;;;;;;12.52;4.38;;;;;;;12.03;100.00;102766.66;5014198;28;20041;-43
2023/05/27 06:54:12;;;;;;;13.02;3.92;;;;;;;12.50;100.00;102827.00;5012977;28;20115;-44
2023/05/27 06:56:37;;;;;;;14.52;5.00;;;;;;;12.45;100.00;102842.03;5013896;28;20405;-45
2023/05/27 06:59:03;;;;;;;14.38;5.35;;;;;;;12.38;100.00;102830.63;5014187;28;20037;-44
2023/05/27 07:01:28;;;;;;;11.48;4.85;;;;;;;12.09;100.00;102777.19;4995125;28;20163;-45
2023/05/27 07:03:53;;;;;;;17.42;4.60;;;;;;;12.41;100.00;102825.31;5013555;28;20456;-44
2023/05/27 07:06:19;;;;;;;14.50;4.80;;;;;;;12.58;100.00;102818.13;5012749;28;20527;-42
2023/05/27 07:08:44;;;;;;;18.20;5.60;;;;;;;12.78;100.00;102810.88;5013990;28;20042;-43
2023/05/27 07:11:10;;;;;;;19.05;5.40;;;;;;;13.02;100.00;102816.81;4996366;28;20121;-45
2023/05/27 07:13:35;;;;;;;11.40;4.43;;;;;;;12.84;100.00;102783.53;5012961;28;20387;-46
2023/05/27 07:16:00;;;;;;;16.80;5.20;;;;;;;13.30;100.00;102820.91;5014155;28;20060;-45
2023/05/27 07:18:26;;;;;;;13.40;4.82;;;;;;;13.42;100.00;102826.06;5012416;28;20091;-44
2023/05/27 07:20:51;;;;;;;19.38;5.05;;;;;;;13.50;100.00;102819.75;5013797;28;20456;-45
2023/05/27 07:23:16;;;;;;;19.88;5.00;;;;;;;13.40;100.00;102801.38;5012845;28;20030;-45
2023/05/27 07:25:42;;;;;;;15.52;5.70;;;;;;;13.37;100.00;102804.94;5013524;28;20061;-43
2023/05/27 07:28:07;;;;;;;12.43;5.05;;;;;;;13.24;100.00;102758.41;5012465;28;20080;-43
2023/05/27 07:30:32;;;;;;;17.55;5.55;;;;;;;13.43;100.00;102765.19;5013586;28;20056;-43
2023/05/27 07:32:58;;;;;;;14.40;5.10;;;;;;;14.15;100.00;102825.00;5013394;28;20037;-43
2023/05/27 07:35:23;;;;;;;15.68;5.28;;;;;;;14.61;100.00;102816.28;5011670;28;20041;-44
2023/05/27 07:37:48;;;;;;;18.77;5.57;;;;;;;14.77;100.00;102763.84;5013169;28;20054;-47
2023/05/27 07:40:14;;;;;;;16.25;5.70;;;;;;;15.58;100.00;102819.69;5012096;28;20045;-42
2023/05/27 07:42:39;;;;;;;16.45;5.35;;;;;;;15.85;100.00;102814.69;5013224;28;20100;-44
2023/05/27 07:45:05;;;;;;;14.23;5.18;;;;;;;16.08;100.00;102821.16;5012485;28;20030;-44
2023/05/27 07:47:31;;;;;;;15.02;4.88;;;;;;;15.84;100.00;102755.38;5012364;28;20084;-48
2023/05/27 07:49:56;;;;;;;16.73;4.90;;;;;;;16.21;100.00;102752.69;5010940;28;20485;-44
2023/05/27 07:52:21;;;;;;;14.90;5.38;;;;;;;16.89;100.00;102812.03;5012719;28;20037;-43
2023/05/27 07:54:48;;;;;;;16.20;5.15;;;;;;;16.88;100.00;102760.63;5012124;28;20033;-46
2023/05/27 07:57:16;;;;;;;11.35;4.53;;;;;;;17.69;100.00;102811.47;5012816;28;20041;-44
2023/05/27 07:59:42;;;;;;;17.55;5.22;;;;;;;17.50;100.00;102786.31;5011774;28;20383;-44
2023/05/27 08:02:07;;;;;;;13.77;4.85;;;;;;;17.71;100.00;102817.66;5013348;28;20045;-48
2023/05/27 08:04:32;;;;;;;16.80;5.25;;;;;;;17.19;100.00;102759.75;5013058;28;20125;-45
2023/05/27 08:06:58;;;;;;;10.68;4.18;;;;;;;17.54;100.00;102764.00;5010807;28;20128;-52
2023/05/27 08:09:24;;;;;;;10.48;4.55;;;;;;;17.34;100.00;102760.16;5012489;28;20459;-46
2023/05/27 08:11:49;;;;;;;11.20;4.47;;;;;;;17.04;100.00;102795.66;5011762;28;20038;-44
2023/05/27 08:14:15;;;;;;;16.65;5.45;;;;;;;16.86;100.00;102759.81;5013033;28;20113;-44
2023/05/27 08:16:41;;;;;;;15.00;5.20;;;;;;;17.32;100.00;102801.91;5012946;28;20072;-46
2023/05/27 08:19:06;;;;;;;11.93;4.13;;;;;;;18.16;100.00;102797.53;5012594;28;20066;-44
2023/05/27 08:21:32;;;;;;;15.52;5.15;;;;;;;18.67;100.00;102802.06;5011688;28;20050;-46
2023/05/27 08:23:57;;;;;;;17.30;4.85;;;;;;;18.81;100.00;102805.09;5011018;28;20038;-47
2023/05/27 08:26:23;;;;;;;15.57;4.60;;;;;;;18.27;100.00;102742.06;5011712;28;20045;-45
2023/05/27 08:28:48;;;;;;;12.90;4.25;;;;;;;18.59;100.00;102790.78;5012431;28;20145;-43
2023/05/27 08:31:13;;;;;;;16.90;4.72;;;;;;;18.05;100.00;102735.72;5011208;28;20042;-45
2023/05/27 08:33:39;;;;;;;13.02;5.03;;;;;;;18.36;100.00;102773.72;5012197;28;20030;-46
2023/05/27 08:36:05;;;;;;;14.75;5.25;;;;;;;18.50;100.00;102776.81;4994334;28;20157;-49
2023/05/27 08:38:31;;;;;;;13.43;5.72;;;;;;;18.37;100.00;102722.16;5011135;28;20184;-47
2023/05/27 08:40:56;;;;;;;18.17;5.43;;;;;;;18.84;100.00;102691.13;5010880;28;20529;-48
2023/05/27 08:43:22;;;;;;;12.52;4.82;;;;;;;19.98;100.00;102753.41;5011542;28;20030;-46
2023/05/27 08:45:48;;;;;;;12.93;4.47;;;;;;;19.94;100.00;102766.00;5012332;28;20049;-49
2023/05/27 08:48:14;;;;;;;13.73;4.57;;;;;;;19.65;100.00;102687.03;5012489;28;20034;-48
2023/05/27 08:50:40;;;;;;;10.93;4.82;;;;;;;19.08;100.00;102700.88;5012444;28;20034;-45
2023/05/27 08:53:05;;;;;;;16.10;5.88;;;;;;;18.83;100.00;102758.75;5012527;28;20477;-48
2023/05/27 08:55:31;;;;;;;15.35;4.60;;;;;;;18.51;100.00;102698.56;5011403;28;20366;-45
2023/05/27 08:57:58;;;;;;;23.00;6.75;;;;;;;19.29;100.00;102739.25;5010670;28;20029;-45
2023/05/27 09:00:25;;;;;;;16.80;5.70;;;;;;;19.39;100.00;102751.31;5012137;28;20041;-48
2023/05/27 09:02:50;;;;;;;15.07;5.38;;;;;;;19.63;100.00;102722.78;5012404;28;20045;-44
2023/05/27 09:05:16;;;;;;;13.73;4.82;;;;;;;19.68;100.00;102680.69;5012248;28;20405;-45
2023/05/27 09:07:42;;;;;;;11.05;4.75;;;;;;;19.65;100.00;102724.44;5011019;28;20442;-47
2023/05/27 09:10:07;;;;;;;11.05;4.55;;;;;;;20.25;100.00;102714.84;5010981;28;20092;-47
2023/05/27 09:12:33;;;;;;;14.90;4.70;;;;;;;20.41;100.00;102681.13;5012388;28;20038;-47
2023/05/27 09:14:59;;;;;;;15.60;5.25;;;;;;;20.42;100.00;102692.72;5010464;28;20045;-43
2023/05/27 09:17:25;;;;;;;12.82;4.65;;;;;;;20.45;100.00;102672.03;5012158;28;20515;-44
2023/05/27 09:19:55;;;;;;;15.10;5.22;;;;;;;21.24;100.00;102727.31;5010789;28;20045;-46
2023/05/27 09:22:29;;;;;;;13.67;4.83;;;;;;;21.18;100.00;102728.47;4994554;28;20527;-51
2023/05/27 09:24:56;;;;;;;15.02;5.63;;;;;;;21.31;100.00;102715.34;5012200;28;20022;-45
2023/05/27 09:27:28;;;;;;;15.32;4.85;;;;;;;21.91;100.00;102724.94;4994818;28;20105;-48
2023/05/27 09:29:55;;;;;;;11.60;5.40;;;;;;;21.01;100.00;102676.63;5012053;28;20044;-45
2023/05/27 09:32:25;;;;;;;14.10;5.30;;;;;;;21.39;100.00;102706.97;4992612;28;20038;-50
2023/05/27 09:34:51;;;;;;;13.18;5.20;;;;;;;20.97;100.00;102710.69;5010932;28;20030;-47
2023/05/27 09:37:17;;;;;;;12.13;5.22;;;;;;;21.06;100.00;102663.88;5011764;28;20682;-47
2023/05/27 09:39:42;;;;;;;13.90;4.97;;;;;;;21.41;100.00;102732.72;5011836;28;20038;-44
2023/05/27 09:42:08;;;;;;;12.90;5.45;;;;;;;21.85;100.00;102677.81;4994464;28;20041;-49
2023/05/27 09:44:42;;;;;;;14.43;5.38;;;;;;;22.09;100.00;102689.16;5011852;28;20527;-48
2023/05/27 09:47:11;;;;;;;13.13;4.80;;;;;;;23.09;100.00;102725.88;5013736;28;20044;-47
2023/05/27 09:49:37;;;;;;;15.45;5.75;;;;;;;23.38;100.00;102720.63;4998018;28;20396;-45
2023/05/27 09:52:05;;;;;;;15.10;5.28;;;;;;;22.61;100.00;102668.50;5015685;28;20250;-46
2023/05/27 09:54:32;;;;;;;13.73;5.70;;;;;;;21.97;100.00;102672.81;5015429;28;20030;-47
2023/05/27 09:56:57;;;;;;;13.73;5.30;;;;;;;22.90;100.00;102705.41;5014261;28;20385;-48
2023/05/27 09:59:23;;;;;;;16.77;5.32;;;;;;;22.85;100.00;102718.19;5015079;28;20033;-44
2023/05/27 10:01:49;;;;;;;16.17;5.65;;;;;;;22.09;100.00;102664.13;5015180;28;20445;-47
2023/05/27 10:04:16;;;;;;;12.02;4.95;;;;;;;22.21;100.00;102725.19;5012205;28;20042;-45
2023/05/27 10:06:41;;;;;;;15.10;5.60;;;;;;;22.49;100.00;102685.25;4997929;28;20039;-45
2023/05/27 10:09:07;;;;;;;15.60;5.45;;;;;;;23.07;100.00;102719.69;5015146;28;20038;-45
2023/05/27 10:11:35;;;;;;;12.57;5.55;;;;;;;22.27;100.00;102647.94;5015133;28;20428;-45
2023/05/27 10:14:01;;;;;;;16.20;5.35;;;;;;;23.18;100.00;102702.03;5014965;28;20026;-50
2023/05/27 10:16:27;;;;;;;14.13;5.53;;;;;;;22.75;100.00;102628.38;5013575;28;20488;-46
2023/05/27 10:18:57;;;;;;;17.08;6.05;;;;;;;23.11;100.00;102689.06;4995521;28;20144;-46
2023/05/27 10:21:24;;;;;;;12.10;5.55;;;;;;;22.72;100.00;102684.03;5013527;28;20022;-43
2023/05/27 10:24:00;;;;;;;14.38;5.75;;;;;;;23.01;100.00;102677.94;5014856;28;20477;-45
2023/05/27 10:26:38;;;;;;;11.73;5.18;;;;;;;24.01;100.00;102670.34;4997245;28;20041;-46
2023/05/27 10:29:14;;;;;;;13.35;4.90;;;;;;;24.32;100.00;102682.81;4997068;28;20433;-43
2023/05/27 10:31:47;;;;;;;14.00;5.32;;;;;;;24.33;100.00;102676.47;5014829;28;20034;-45
2023/05/27 10:34:12;;;;;;;11.85;5.85;;;;;;;23.88;100.00;102612.84;5011493;28;20481;-47
2023/05/27 10:36:38;;;;;;;12.63;5.30;;;;;;;23.64;100.00;102649.28;5014585;28;20057;-45
2023/05/27 10:39:14;;;;;;;11.50;5.15;;;;;;;23.77;100.00;102628.75;5014457;28;20042;-47
2023/05/27 10:41:52;;;;;;;16.88;5.38;;;;;;;24.42;100.00;102667.84;5014305;28;20362;-47
2023/05/27 10:44:30;;;;;;;11.80;5.88;;;;;;;24.40;100.00;102664.38;4996308;28;20126;-46
2023/05/27 10:47:13;;;;;;;13.57;5.05;;;;;;;24.32;100.00;102661.28;5014021;28;20389;-48
2023/05/27 10:49:40;;;;;;;11.32;5.32;;;;;;;24.27;100.00;102667.91;5014253;28;20114;-45
2023/05/27 10:52:12;;;;;;;15.05;5.93;;;;;;;24.38;100.00;102600.81;5012868;28;20030;-49
2023/05/27 10:54:38;;;;;;;13.85;5.72;;;;;;;25.24;100.00;102599.78;5012461;28;20124;-49
2023/05/27 10:57:04;;;;;;;12.18;6.32;;;;;;;25.45;100.00;102644.19;4995437;28;20096;-44
2023/05/27 10:59:47;;;;;;;13.07;6.18;;;;;;;24.46;99.98;102575.16;5012597;28;20489;-43
2023/05/27 11:02:13;;;;;;;16.55;6.05;;;;;;;24.67;99.41;102640.25;5013548;28;20045;-44
2023/05/27 11:04:38;;;;;;;16.30;7.22;;;;;;;24.14;100.00;102627.41;5012506;28;20449;-45
2023/05/27 11:07:04;;;;;;;14.02;5.28;;;;;;;25.19;100.00;102629.69;5011917;28;20050;-47
2023/05/27 11:09:49;;;;;;;9.95;4.85;;;;;;;25.74;96.57;102576.53;5013963;28;20034;-47
2023/05/27 11:12:18;;;;;;;15.10;5.50;;;;;;;26.28;93.16;102627.69;5172680;22;20373;-45
2023/05/27 11:14:45;;;;;;;11.67;6.03;;;;;;;26.66;100.00;102622.25;4994158;28;20030;-46